sensor_id;sensor_type;location;lat;lon;timestamp;P1;durP1;ratioP1;P2;durP2;ratioP2
60979;SDS011;46851;49.160;8.980;2023-10-13T00:02:01;15.75;;;8.07;;
60979;SDS011;46851;49.160;8.980;2023-10-13T00:04:30;17.55;;;8.63;;
60979;SDS011;46851;49.160;8.980;2023-10-13T00:07:07;17.75;;;8.35;;
60979;SDS011;46851;49.160;8.980;2023-10-13T00:09:34;14.02;;;8.77;;
60979;SDS011;46851;49.160;8.980;2023-10-13T00:12:04;16.25;;;8.82;;
60979;SDS011;46851;49.160;8.980;2023-10-13T00:14:38;15.27;;;8.95;;
60979;SDS011;46851;49.160;8.980;2023-10-13T00:17:04;17.40;;;9.40;;
60979;SDS011;46851;49.160;8.980;2023-10-13T00:19:36;19.33;;;8.80;;
60979;SDS011;46851;49.160;8.980;2023-10-13T00:22:06;15.57;;;8.60;;
60979;SDS011;46851;49.160;8.980;2023-10-13T00:24:39;16.70;;;9.07;;
60979;SDS011;46851;49.160;8.980;2023-10-13T00:27:11;16.67;;;10.05;;
60979;SDS011;46851;49.160;8.980;2023-10-13T00:29:54;17.52;;;9.82;;
60979;SDS011;46851;49.160;8.980;2023-10-13T00:32:39;14.65;;;9.73;;
60979;SDS011;46851;49.160;8.980;2023-10-13T00:35:09;16.00;;;9.32;;
60979;SDS011;46851;49.160;8.980;2023-10-13T00:37:38;20.88;;;9.50;;
60979;SDS011;46851;49.160;8.980;2023-10-13T00:40:13;18.00;;;9.20;;
60979;SDS011;46851;49.160;8.980;2023-10-13T00:42:59;18.20;;;9.18;;
60979;SDS011;46851;49.160;8.980;2023-10-13T00:48:30;19.42;;;9.50;;
60979;SDS011;46851;49.160;8.980;2023-10-13T00:51:05;19.00;;;10.65;;
60979;SDS011;46851;49.160;8.980;2023-10-13T00:53:43;16.17;;;10.02;;
60979;SDS011;46851;49.160;8.980;2023-10-13T00:56:10;17.83;;;10.10;;
60979;SDS011;46851;49.160;8.980;2023-10-13T00:58:47;19.45;;;9.75;;
60979;SDS011;46851;49.160;8.980;2023-10-13T01:01:15;17.55;;;9.57;;
60979;SDS011;46851;49.160;8.980;2023-10-13T01:03:51;16.27;;;9.60;;
60979;SDS011;46851;49.160;8.980;2023-10-13T01:06:23;18.90;;;9.35;;
60979;SDS011;46851;49.160;8.980;2023-10-13T01:11:47;19.10;;;9.95;;
60979;SDS011;46851;49.160;8.980;2023-10-13T01:14:17;16.35;;;10.30;;
60979;SDS011;46851;49.160;8.980;2023-10-13T01:16:47;14.25;;;9.32;;
60979;SDS011;46851;49.160;8.980;2023-10-13T01:19:17;17.00;;;10.15;;
60979;SDS011;46851;49.160;8.980;2023-10-13T01:21:44;15.32;;;9.60;;
60979;SDS011;46851;49.160;8.980;2023-10-13T01:24:12;24.58;;;10.43;;
60979;SDS011;46851;49.160;8.980;2023-10-13T01:26:38;21.30;;;10.18;;
60979;SDS011;46851;49.160;8.980;2023-10-13T01:29:06;19.42;;;9.55;;
60979;SDS011;46851;49.160;8.980;2023-10-13T01:31:42;18.52;;;10.00;;
60979;SDS011;46851;49.160;8.980;2023-10-13T01:34:19;20.88;;;10.20;;
60979;SDS011;46851;49.160;8.980;2023-10-13T01:36:49;19.42;;;10.57;;
60979;SDS011;46851;49.160;8.980;2023-10-13T01:39:22;15.77;;;9.88;;
60979;SDS011;46851;49.160;8.980;2023-10-13T01:41:55;16.85;;;9.55;;
60979;SDS011;46851;49.160;8.980;2023-10-13T01:44:21;19.70;;;10.10;;
60979;SDS011;46851;49.160;8.980;2023-10-13T01:46:47;21.85;;;10.32;;
60979;SDS011;46851;49.160;8.980;2023-10-13T01:49:13;16.38;;;9.45;;
60979;SDS011;46851;49.160;8.980;2023-10-13T01:51:43;23.15;;;10.85;;
60979;SDS011;46851;49.160;8.980;2023-10-13T01:54:12;18.77;;;9.80;;
60979;SDS011;46851;49.160;8.980;2023-10-13T01:56:40;17.42;;;10.25;;
60979;SDS011;46851;49.160;8.980;2023-10-13T01:59:12;21.00;;;10.18;;
60979;SDS011;46851;49.160;8.980;2023-10-13T02:01:38;18.20;;;10.25;;
60979;SDS011;46851;49.160;8.980;2023-10-13T02:04:06;16.75;;;9.73;;
60979;SDS011;46851;49.160;8.980;2023-10-13T02:06:34;15.27;;;9.50;;
60979;SDS011;46851;49.160;8.980;2023-10-13T02:09:05;18.73;;;9.40;;
60979;SDS011;46851;49.160;8.980;2023-10-13T02:11:51;19.50;;;9.52;;
60979;SDS011;46851;49.160;8.980;2023-10-13T02:14:22;15.02;;;9.48;;
60979;SDS011;46851;49.160;8.980;2023-10-13T02:16:50;17.70;;;10.25;;
60979;SDS011;46851;49.160;8.980;2023-10-13T02:21:46;16.38;;;9.45;;
60979;SDS011;46851;49.160;8.980;2023-10-13T02:24:23;17.55;;;10.70;;
60979;SDS011;46851;49.160;8.980;2023-10-13T02:26:54;20.75;;;10.13;;
60979;SDS011;46851;49.160;8.980;2023-10-13T02:29:21;14.88;;;9.80;;
60979;SDS011;46851;49.160;8.980;2023-10-13T02:31:47;18.48;;;10.88;;
60979;SDS011;46851;49.160;8.980;2023-10-13T02:34:20;23.90;;;11.90;;
60979;SDS011;46851;49.160;8.980;2023-10-13T02:36:48;20.08;;;10.43;;
60979;SDS011;46851;49.160;8.980;2023-10-13T02:39:17;20.23;;;11.45;;
60979;SDS011;46851;49.160;8.980;2023-10-13T02:41:49;18.15;;;10.82;;
60979;SDS011;46851;49.160;8.980;2023-10-13T02:44:15;25.17;;;11.75;;
60979;SDS011;46851;49.160;8.980;2023-10-13T02:46:58;20.10;;;10.10;;
60979;SDS011;46851;49.160;8.980;2023-10-13T02:49:27;21.98;;;11.32;;
60979;SDS011;46851;49.160;8.980;2023-10-13T02:51:59;22.63;;;11.13;;
60979;SDS011;46851;49.160;8.980;2023-10-13T02:54:32;22.08;;;11.40;;
60979;SDS011;46851;49.160;8.980;2023-10-13T02:57:04;22.92;;;11.88;;
60979;SDS011;46851;49.160;8.980;2023-10-13T02:59:31;20.10;;;11.77;;
60979;SDS011;46851;49.160;8.980;2023-10-13T03:02:04;26.50;;;11.82;;
60979;SDS011;46851;49.160;8.980;2023-10-13T03:04:52;23.98;;;12.32;;
60979;SDS011;46851;49.160;8.980;2023-10-13T03:07:24;25.40;;;13.45;;
60979;SDS011;46851;49.160;8.980;2023-10-13T03:09:53;21.05;;;11.15;;
60979;SDS011;46851;49.160;8.980;2023-10-13T03:12:23;26.17;;;11.82;;
60979;SDS011;46851;49.160;8.980;2023-10-13T03:14:58;25.17;;;11.00;;
60979;SDS011;46851;49.160;8.980;2023-10-13T03:17:40;20.38;;;10.50;;
60979;SDS011;46851;49.160;8.980;2023-10-13T03:20:10;18.58;;;10.85;;
60979;SDS011;46851;49.160;8.980;2023-10-13T03:22:40;23.10;;;11.20;;
60979;SDS011;46851;49.160;8.980;2023-10-13T03:25:10;18.00;;;11.00;;
60979;SDS011;46851;49.160;8.980;2023-10-13T03:27:42;19.42;;;9.57;;
60979;SDS011;46851;49.160;8.980;2023-10-13T03:30:18;20.17;;;10.52;;
60979;SDS011;46851;49.160;8.980;2023-10-13T03:32:45;19.30;;;10.73;;
60979;SDS011;46851;49.160;8.980;2023-10-13T03:35:13;18.13;;;10.10;;
60979;SDS011;46851;49.160;8.980;2023-10-13T03:37:49;19.60;;;10.38;;
60979;SDS011;46851;49.160;8.980;2023-10-13T03:40:15;19.15;;;10.93;;
60979;SDS011;46851;49.160;8.980;2023-10-13T03:42:50;18.02;;;10.48;;
60979;SDS011;46851;49.160;8.980;2023-10-13T03:45:30;18.25;;;10.45;;
60979;SDS011;46851;49.160;8.980;2023-10-13T03:48:09;20.23;;;10.20;;
60979;SDS011;46851;49.160;8.980;2023-10-13T03:50:37;16.15;;;10.23;;
60979;SDS011;46851;49.160;8.980;2023-10-13T03:53:11;18.92;;;10.32;;
60979;SDS011;46851;49.160;8.980;2023-10-13T03:55:38;20.33;;;10.05;;
60979;SDS011;46851;49.160;8.980;2023-10-13T03:58:04;19.77;;;10.60;;
60979;SDS011;46851;49.160;8.980;2023-10-13T04:00:30;18.65;;;9.98;;
60979;SDS011;46851;49.160;8.980;2023-10-13T04:02:56;17.13;;;9.98;;
60979;SDS011;46851;49.160;8.980;2023-10-13T04:05:32;24.25;;;9.82;;
60979;SDS011;46851;49.160;8.980;2023-10-13T04:08:06;16.83;;;9.60;;
60979;SDS011;46851;49.160;8.980;2023-10-13T04:10:51;18.88;;;9.48;;
60979;SDS011;46851;49.160;8.980;2023-10-13T04:13:18;15.88;;;9.05;;
60979;SDS011;46851;49.160;8.980;2023-10-13T04:16:03;17.10;;;10.35;;
60979;SDS011;46851;49.160;8.980;2023-10-13T04:18:50;18.10;;;9.48;;
60979;SDS011;46851;49.160;8.980;2023-10-13T04:21:25;19.90;;;10.30;;
60979;SDS011;46851;49.160;8.980;2023-10-13T04:24:12;16.95;;;9.43;;
60979;SDS011;46851;49.160;8.980;2023-10-13T04:26:57;15.23;;;9.15;;
60979;SDS011;46851;49.160;8.980;2023-10-13T04:29:52;17.83;;;10.15;;
60979;SDS011;46851;49.160;8.980;2023-10-13T04:32:35;16.73;;;8.93;;
60979;SDS011;46851;49.160;8.980;2023-10-13T04:35:11;21.77;;;10.68;;
60979;SDS011;46851;49.160;8.980;2023-10-13T04:37:37;22.73;;;10.82;;
60979;SDS011;46851;49.160;8.980;2023-10-13T04:42:44;21.77;;;10.43;;
60979;SDS011;46851;49.160;8.980;2023-10-13T04:45:22;25.65;;;11.40;;
60979;SDS011;46851;49.160;8.980;2023-10-13T04:48:00;24.50;;;11.27;;
60979;SDS011;46851;49.160;8.980;2023-10-13T04:50:48;23.65;;;11.75;;
60979;SDS011;46851;49.160;8.980;2023-10-13T04:53:23;25.00;;;11.30;;
60979;SDS011;46851;49.160;8.980;2023-10-13T04:55:58;17.92;;;10.88;;
60979;SDS011;46851;49.160;8.980;2023-10-13T04:58:28;17.17;;;9.02;;
60979;SDS011;46851;49.160;8.980;2023-10-13T05:01:03;21.58;;;9.65;;
60979;SDS011;46851;49.160;8.980;2023-10-13T05:03:48;15.50;;;8.82;;
60979;SDS011;46851;49.160;8.980;2023-10-13T05:06:33;13.73;;;8.35;;
60979;SDS011;46851;49.160;8.980;2023-10-13T05:09:12;19.40;;;9.35;;
60979;SDS011;46851;49.160;8.980;2023-10-13T05:11:57;19.05;;;9.32;;
60979;SDS011;46851;49.160;8.980;2023-10-13T05:14:42;13.70;;;7.88;;
60979;SDS011;46851;49.160;8.980;2023-10-13T05:17:26;13.70;;;7.93;;
60979;SDS011;46851;49.160;8.980;2023-10-13T05:20:11;20.92;;;8.75;;
60979;SDS011;46851;49.160;8.980;2023-10-13T05:22:56;23.55;;;8.63;;
60979;SDS011;46851;49.160;8.980;2023-10-13T05:25:40;19.77;;;8.55;;
60979;SDS011;46851;49.160;8.980;2023-10-13T05:28:25;20.75;;;8.50;;
60979;SDS011;46851;49.160;8.980;2023-10-13T05:31:09;19.35;;;8.05;;
60979;SDS011;46851;49.160;8.980;2023-10-13T05:33:54;24.23;;;8.40;;
60979;SDS011;46851;49.160;8.980;2023-10-13T05:36:38;17.05;;;8.10;;
60979;SDS011;46851;49.160;8.980;2023-10-13T05:39:23;23.90;;;9.32;;
60979;SDS011;46851;49.160;8.980;2023-10-13T05:42:08;24.30;;;8.10;;
60979;SDS011;46851;49.160;8.980;2023-10-13T05:44:53;22.17;;;8.48;;
60979;SDS011;46851;49.160;8.980;2023-10-13T05:47:38;27.02;;;8.50;;
60979;SDS011;46851;49.160;8.980;2023-10-13T05:50:05;29.52;;;8.80;;
60979;SDS011;46851;49.160;8.980;2023-10-13T05:52:47;19.35;;;8.90;;
60979;SDS011;46851;49.160;8.980;2023-10-13T05:55:19;22.60;;;9.60;;
60979;SDS011;46851;49.160;8.980;2023-10-13T05:58:04;15.90;;;8.60;;
60979;SDS011;46851;49.160;8.980;2023-10-13T06:00:48;18.45;;;7.85;;
60979;SDS011;46851;49.160;8.980;2023-10-13T06:03:33;23.95;;;9.63;;
60979;SDS011;46851;49.160;8.980;2023-10-13T06:06:17;20.30;;;8.90;;
60979;SDS011;46851;49.160;8.980;2023-10-13T06:09:02;28.00;;;8.93;;
60979;SDS011;46851;49.160;8.980;2023-10-13T06:11:47;20.15;;;8.45;;
60979;SDS011;46851;49.160;8.980;2023-10-13T06:14:31;16.83;;;8.68;;
60979;SDS011;46851;49.160;8.980;2023-10-13T06:17:16;25.55;;;8.35;;
60979;SDS011;46851;49.160;8.980;2023-10-13T06:20:00;19.17;;;8.27;;
60979;SDS011;46851;49.160;8.980;2023-10-13T06:22:48;12.75;;;7.53;;
60979;SDS011;46851;49.160;8.980;2023-10-13T06:25:32;20.33;;;7.78;;
60979;SDS011;46851;49.160;8.980;2023-10-13T06:28:17;25.95;;;7.57;;
60979;SDS011;46851;49.160;8.980;2023-10-13T06:31:04;14.32;;;7.18;;
60979;SDS011;46851;49.160;8.980;2023-10-13T06:33:33;17.48;;;6.75;;
60979;SDS011;46851;49.160;8.980;2023-10-13T06:36:01;18.95;;;7.07;;
60979;SDS011;46851;49.160;8.980;2023-10-13T06:38:27;11.65;;;6.50;;
60979;SDS011;46851;49.160;8.980;2023-10-13T06:41:01;15.70;;;6.93;;
60979;SDS011;46851;49.160;8.980;2023-10-13T06:43:30;12.82;;;6.70;;
60979;SDS011;46851;49.160;8.980;2023-10-13T06:45:57;16.83;;;6.72;;
60979;SDS011;46851;49.160;8.980;2023-10-13T06:48:27;15.90;;;6.47;;
60979;SDS011;46851;49.160;8.980;2023-10-13T06:50:58;20.70;;;7.25;;
60979;SDS011;46851;49.160;8.980;2023-10-13T06:53:29;21.08;;;6.47;;
60979;SDS011;46851;49.160;8.980;2023-10-13T06:56:01;24.60;;;7.43;;
60979;SDS011;46851;49.160;8.980;2023-10-13T06:58:28;21.20;;;6.47;;
60979;SDS011;46851;49.160;8.980;2023-10-13T07:00:54;11.63;;;6.55;;
60979;SDS011;46851;49.160;8.980;2023-10-13T07:03:21;16.13;;;6.43;;
60979;SDS011;46851;49.160;8.980;2023-10-13T07:05:48;16.13;;;6.47;;
60979;SDS011;46851;49.160;8.980;2023-10-13T07:08:14;11.18;;;5.72;;
60979;SDS011;46851;49.160;8.980;2023-10-13T07:10:52;16.27;;;8.95;;
60979;SDS011;46851;49.160;8.980;2023-10-13T07:13:30;21.52;;;11.40;;
60979;SDS011;46851;49.160;8.980;2023-10-13T07:15:56;13.80;;;7.35;;
60979;SDS011;46851;49.160;8.980;2023-10-13T07:18:30;14.75;;;5.97;;
60979;SDS011;46851;49.160;8.980;2023-10-13T07:21:02;18.63;;;5.97;;
60979;SDS011;46851;49.160;8.980;2023-10-13T07:23:34;14.73;;;5.63;;
60979;SDS011;46851;49.160;8.980;2023-10-13T07:26:01;10.18;;;5.30;;
60979;SDS011;46851;49.160;8.980;2023-10-13T07:28:30;8.82;;;4.15;;
60979;SDS011;46851;49.160;8.980;2023-10-13T07:30:59;9.18;;;4.53;;
60979;SDS011;46851;49.160;8.980;2023-10-13T07:33:25;9.50;;;3.60;;
60979;SDS011;46851;49.160;8.980;2023-10-13T07:36:07;13.13;;;3.97;;
60979;SDS011;46851;49.160;8.980;2023-10-13T07:38:44;16.27;;;6.35;;
60979;SDS011;46851;49.160;8.980;2023-10-13T07:41:30;7.57;;;4.63;;
60979;SDS011;46851;49.160;8.980;2023-10-13T07:43:57;12.52;;;4.00;;
60979;SDS011;46851;49.160;8.980;2023-10-13T07:46:24;9.30;;;3.63;;
60979;SDS011;46851;49.160;8.980;2023-10-13T07:48:56;10.25;;;4.50;;
60979;SDS011;46851;49.160;8.980;2023-10-13T07:51:35;9.75;;;3.88;;
60979;SDS011;46851;49.160;8.980;2023-10-13T07:54:13;11.73;;;4.72;;
60979;SDS011;46851;49.160;8.980;2023-10-13T07:56:46;11.07;;;3.80;;
60979;SDS011;46851;49.160;8.980;2023-10-13T07:59:13;7.07;;;3.60;;
60979;SDS011;46851;49.160;8.980;2023-10-13T08:01:42;7.50;;;4.03;;
60979;SDS011;46851;49.160;8.980;2023-10-13T08:04:08;14.23;;;4.47;;
60979;SDS011;46851;49.160;8.980;2023-10-13T08:09:05;11.45;;;4.70;;
60979;SDS011;46851;49.160;8.980;2023-10-13T08:11:37;9.18;;;3.53;;
60979;SDS011;46851;49.160;8.980;2023-10-13T08:14:05;6.95;;;3.50;;
60979;SDS011;46851;49.160;8.980;2023-10-13T08:16:40;10.05;;;3.17;;
60979;SDS011;46851;49.160;8.980;2023-10-13T08:19:12;6.80;;;3.42;;
60979;SDS011;46851;49.160;8.980;2023-10-13T08:21:40;6.18;;;3.42;;
60979;SDS011;46851;49.160;8.980;2023-10-13T08:24:14;9.05;;;3.50;;
60979;SDS011;46851;49.160;8.980;2023-10-13T08:26:40;11.13;;;3.85;;
60979;SDS011;46851;49.160;8.980;2023-10-13T08:29:23;13.85;;;4.13;;
60979;SDS011;46851;49.160;8.980;2023-10-13T08:31:55;8.52;;;4.07;;
60979;SDS011;46851;49.160;8.980;2023-10-13T08:34:39;10.13;;;4.47;;
60979;SDS011;46851;49.160;8.980;2023-10-13T08:37:27;11.55;;;4.40;;
60979;SDS011;46851;49.160;8.980;2023-10-13T08:42:27;7.93;;;3.97;;
60979;SDS011;46851;49.160;8.980;2023-10-13T08:47:47;11.32;;;3.72;;
60979;SDS011;46851;49.160;8.980;2023-10-13T08:50:32;9.98;;;4.15;;
60979;SDS011;46851;49.160;8.980;2023-10-13T08:53:17;8.65;;;3.75;;
60979;SDS011;46851;49.160;8.980;2023-10-13T08:56:06;8.80;;;3.42;;
60979;SDS011;46851;49.160;8.980;2023-10-13T08:58:38;11.82;;;3.50;;
60979;SDS011;46851;49.160;8.980;2023-10-13T09:04:00;7.10;;;3.33;;
60979;SDS011;46851;49.160;8.980;2023-10-13T09:06:46;11.40;;;3.70;;
60979;SDS011;46851;49.160;8.980;2023-10-13T09:09:15;8.77;;;3.42;;
60979;SDS011;46851;49.160;8.980;2023-10-13T09:12:01;7.32;;;3.22;;
60979;SDS011;46851;49.160;8.980;2023-10-13T09:14:41;11.70;;;3.40;;
60979;SDS011;46851;49.160;8.980;2023-10-13T09:17:12;5.25;;;3.13;;
60979;SDS011;46851;49.160;8.980;2023-10-13T09:19:58;6.30;;;3.28;;
60979;SDS011;46851;49.160;8.980;2023-10-13T09:22:44;6.75;;;3.20;;
60979;SDS011;46851;49.160;8.980;2023-10-13T09:25:33;11.05;;;3.97;;
60979;SDS011;46851;49.160;8.980;2023-10-13T09:28:14;11.85;;;4.00;;
60979;SDS011;46851;49.160;8.980;2023-10-13T09:30:46;11.18;;;3.80;;
60979;SDS011;46851;49.160;8.980;2023-10-13T09:33:12;10.68;;;3.30;;
60979;SDS011;46851;49.160;8.980;2023-10-13T09:35:44;9.73;;;4.38;;
60979;SDS011;46851;49.160;8.980;2023-10-13T09:38:16;10.35;;;3.85;;
60979;SDS011;46851;49.160;8.980;2023-10-13T09:40:43;10.13;;;3.63;;
60979;SDS011;46851;49.160;8.980;2023-10-13T09:43:18;5.70;;;3.22;;
60979;SDS011;46851;49.160;8.980;2023-10-13T09:45:47;9.88;;;3.75;;
60979;SDS011;46851;49.160;8.980;2023-10-13T09:48:38;6.78;;;3.08;;
60979;SDS011;46851;49.160;8.980;2023-10-13T09:51:06;7.75;;;3.30;;
60979;SDS011;46851;49.160;8.980;2023-10-13T09:53:37;8.43;;;3.13;;
60979;SDS011;46851;49.160;8.980;2023-10-13T09:56:07;7.88;;;3.17;;
60979;SDS011;46851;49.160;8.980;2023-10-13T09:58:48;6.63;;;3.10;;
60979;SDS011;46851;49.160;8.980;2023-10-13T10:01:17;5.85;;;3.05;;
60979;SDS011;46851;49.160;8.980;2023-10-13T10:04:05;12.40;;;3.72;;
60979;SDS011;46851;49.160;8.980;2023-10-13T10:06:36;10.50;;;3.40;;
60979;SDS011;46851;49.160;8.980;2023-10-13T10:09:14;8.05;;;3.60;;
60979;SDS011;46851;49.160;8.980;2023-10-13T10:14:15;10.77;;;3.33;;
60979;SDS011;46851;49.160;8.980;2023-10-13T10:19:25;12.57;;;3.85;;
60979;SDS011;46851;49.160;8.980;2023-10-13T10:22:04;9.63;;;3.75;;
60979;SDS011;46851;49.160;8.980;2023-10-13T10:24:41;10.98;;;3.30;;
60979;SDS011;46851;49.160;8.980;2023-10-13T10:27:07;9.43;;;3.38;;
60979;SDS011;46851;49.160;8.980;2023-10-13T10:29:39;13.25;;;3.80;;
60979;SDS011;46851;49.160;8.980;2023-10-13T10:32:13;8.20;;;3.33;;
60979;SDS011;46851;49.160;8.980;2023-10-13T10:34:39;8.27;;;3.50;;
60979;SDS011;46851;49.160;8.980;2023-10-13T10:37:05;8.65;;;3.22;;
60979;SDS011;46851;49.160;8.980;2023-10-13T10:42:10;8.38;;;3.25;;
60979;SDS011;46851;49.160;8.980;2023-10-13T10:44:49;6.68;;;3.10;;
60979;SDS011;46851;49.160;8.980;2023-10-13T10:47:20;8.23;;;3.50;;
60979;SDS011;46851;49.160;8.980;2023-10-13T10:50:04;11.05;;;3.45;;
60979;SDS011;46851;49.160;8.980;2023-10-13T10:52:44;10.88;;;3.30;;
60979;SDS011;46851;49.160;8.980;2023-10-13T10:55:12;11.25;;;3.13;;
60979;SDS011;46851;49.160;8.980;2023-10-13T10:57:44;10.23;;;3.33;;
60979;SDS011;46851;49.160;8.980;2023-10-13T11:00:20;12.45;;;3.53;;
60979;SDS011;46851;49.160;8.980;2023-10-13T11:02:55;8.77;;;4.07;;
60979;SDS011;46851;49.160;8.980;2023-10-13T11:05:22;5.72;;;3.10;;
60979;SDS011;46851;49.160;8.980;2023-10-13T11:07:49;15.23;;;5.17;;
60979;SDS011;46851;49.160;8.980;2023-10-13T11:10:16;12.30;;;3.58;;
60979;SDS011;46851;49.160;8.980;2023-10-13T11:12:59;10.63;;;3.40;;
60979;SDS011;46851;49.160;8.980;2023-10-13T11:15:48;9.27;;;3.28;;
60979;SDS011;46851;49.160;8.980;2023-10-13T11:18:15;6.20;;;3.00;;
60979;SDS011;46851;49.160;8.980;2023-10-13T11:20:46;12.35;;;3.65;;
60979;SDS011;46851;49.160;8.980;2023-10-13T11:23:15;9.50;;;4.22;;
60979;SDS011;46851;49.160;8.980;2023-10-13T11:25:41;12.48;;;3.92;;
60979;SDS011;46851;49.160;8.980;2023-10-13T11:30:42;13.32;;;3.40;;
60979;SDS011;46851;49.160;8.980;2023-10-13T11:33:10;20.13;;;4.03;;
60979;SDS011;46851;49.160;8.980;2023-10-13T11:35:38;11.40;;;5.03;;
60979;SDS011;46851;49.160;8.980;2023-10-13T11:40:52;16.25;;;3.67;;
60979;SDS011;46851;49.160;8.980;2023-10-13T11:43:37;9.05;;;3.33;;
60979;SDS011;46851;49.160;8.980;2023-10-13T11:49:01;7.53;;;3.72;;
60979;SDS011;46851;49.160;8.980;2023-10-13T11:51:47;12.40;;;3.75;;
60979;SDS011;46851;49.160;8.980;2023-10-13T11:54:22;11.55;;;3.50;;
60979;SDS011;46851;49.160;8.980;2023-10-13T11:56:48;9.18;;;3.22;;
60979;SDS011;46851;49.160;8.980;2023-10-13T11:59:15;7.78;;;2.85;;
60979;SDS011;46851;49.160;8.980;2023-10-13T12:01:51;8.07;;;3.13;;
60979;SDS011;46851;49.160;8.980;2023-10-13T12:04:36;8.07;;;3.17;;
60979;SDS011;46851;49.160;8.980;2023-10-13T12:07:14;17.52;;;4.45;;
60979;SDS011;46851;49.160;8.980;2023-10-13T12:09:43;8.18;;;3.20;;
60979;SDS011;46851;49.160;8.980;2023-10-13T12:14:47;10.55;;;2.92;;
60979;SDS011;46851;49.160;8.980;2023-10-13T12:17:27;12.32;;;3.25;;
60979;SDS011;46851;49.160;8.980;2023-10-13T12:19:59;7.88;;;3.17;;
60979;SDS011;46851;49.160;8.980;2023-10-13T12:22:25;8.75;;;3.20;;
60979;SDS011;46851;49.160;8.980;2023-10-13T12:25:00;12.88;;;3.65;;
60979;SDS011;46851;49.160;8.980;2023-10-13T12:27:30;7.95;;;2.92;;
60979;SDS011;46851;49.160;8.980;2023-10-13T12:30:13;12.52;;;4.30;;
60979;SDS011;46851;49.160;8.980;2023-10-13T12:32:47;10.48;;;3.00;;
60979;SDS011;46851;49.160;8.980;2023-10-13T12:35:23;6.40;;;2.67;;
60979;SDS011;46851;49.160;8.980;2023-10-13T12:37:55;5.78;;;2.70;;
60979;SDS011;46851;49.160;8.980;2023-10-13T12:40:29;18.38;;;3.22;;
60979;SDS011;46851;49.160;8.980;2023-10-13T12:43:22;8.85;;;2.70;;
60979;SDS011;46851;49.160;8.980;2023-10-13T12:46:07;5.53;;;2.30;;
60979;SDS011;46851;49.160;8.980;2023-10-13T12:48:51;8.18;;;2.88;;
60979;SDS011;46851;49.160;8.980;2023-10-13T12:51:32;6.57;;;2.50;;
60979;SDS011;46851;49.160;8.980;2023-10-13T12:53:58;13.32;;;3.15;;
60979;SDS011;46851;49.160;8.980;2023-10-13T12:56:45;8.27;;;2.53;;
60979;SDS011;46851;49.160;8.980;2023-10-13T12:59:11;6.75;;;2.80;;
60979;SDS011;46851;49.160;8.980;2023-10-13T13:01:56;7.50;;;3.15;;
60979;SDS011;46851;49.160;8.980;2023-10-13T13:04:22;7.75;;;3.25;;
60979;SDS011;46851;49.160;8.980;2023-10-13T13:06:57;7.35;;;2.90;;
60979;SDS011;46851;49.160;8.980;2023-10-13T13:09:23;8.95;;;3.72;;
60979;SDS011;46851;49.160;8.980;2023-10-13T13:11:52;7.55;;;3.00;;
60979;SDS011;46851;49.160;8.980;2023-10-13T13:14:22;10.77;;;3.83;;
60979;SDS011;46851;49.160;8.980;2023-10-13T13:16:54;7.47;;;2.88;;
60979;SDS011;46851;49.160;8.980;2023-10-13T13:19:20;8.82;;;2.60;;
60979;SDS011;46851;49.160;8.980;2023-10-13T13:21:51;7.07;;;2.88;;
60979;SDS011;46851;49.160;8.980;2023-10-13T13:24:17;7.28;;;2.75;;
60979;SDS011;46851;49.160;8.980;2023-10-13T13:26:43;11.27;;;2.75;;
60979;SDS011;46851;49.160;8.980;2023-10-13T13:29:09;13.05;;;2.63;;
60979;SDS011;46851;49.160;8.980;2023-10-13T13:31:35;7.20;;;2.97;;
60979;SDS011;46851;49.160;8.980;2023-10-13T13:34:06;6.97;;;2.80;;
60979;SDS011;46851;49.160;8.980;2023-10-13T13:36:34;11.07;;;2.80;;
60979;SDS011;46851;49.160;8.980;2023-10-13T13:39:00;10.38;;;3.08;;
60979;SDS011;46851;49.160;8.980;2023-10-13T13:41:26;9.35;;;3.10;;
60979;SDS011;46851;49.160;8.980;2023-10-13T13:43:52;7.72;;;3.00;;
60979;SDS011;46851;49.160;8.980;2023-10-13T13:46:22;6.40;;;2.67;;
60979;SDS011;46851;49.160;8.980;2023-10-13T13:48:58;10.05;;;2.50;;
60979;SDS011;46851;49.160;8.980;2023-10-13T13:51:27;11.30;;;2.67;;
60979;SDS011;46851;49.160;8.980;2023-10-13T13:53:54;6.00;;;2.67;;
60979;SDS011;46851;49.160;8.980;2023-10-13T13:56:21;8.07;;;2.15;;
60979;SDS011;46851;49.160;8.980;2023-10-13T13:58:50;9.80;;;3.10;;
60979;SDS011;46851;49.160;8.980;2023-10-13T14:01:16;9.05;;;2.88;;
60979;SDS011;46851;49.160;8.980;2023-10-13T14:03:52;7.60;;;2.80;;
60979;SDS011;46851;49.160;8.980;2023-10-13T14:06:21;10.57;;;2.45;;
60979;SDS011;46851;49.160;8.980;2023-10-13T14:08:57;6.82;;;2.67;;
60979;SDS011;46851;49.160;8.980;2023-10-13T14:11:32;5.85;;;2.33;;
60979;SDS011;46851;49.160;8.980;2023-10-13T14:14:06;6.47;;;2.58;;
60979;SDS011;46851;49.160;8.980;2023-10-13T14:16:53;11.20;;;3.08;;
60979;SDS011;46851;49.160;8.980;2023-10-13T14:19:27;6.40;;;2.38;;
60979;SDS011;46851;49.160;8.980;2023-10-13T14:21:56;8.48;;;2.70;;
60979;SDS011;46851;49.160;8.980;2023-10-13T14:24:23;7.05;;;2.45;;
60979;SDS011;46851;49.160;8.980;2023-10-13T14:26:58;14.63;;;3.22;;
60979;SDS011;46851;49.160;8.980;2023-10-13T14:29:33;10.73;;;2.60;;
60979;SDS011;46851;49.160;8.980;2023-10-13T14:31:59;6.28;;;2.25;;
60979;SDS011;46851;49.160;8.980;2023-10-13T14:34:25;7.88;;;2.10;;
60979;SDS011;46851;49.160;8.980;2023-10-13T14:36:51;7.97;;;2.53;;
60979;SDS011;46851;49.160;8.980;2023-10-13T14:39:19;9.80;;;3.38;;
60979;SDS011;46851;49.160;8.980;2023-10-13T14:41:46;10.05;;;2.70;;
60979;SDS011;46851;49.160;8.980;2023-10-13T14:44:13;6.20;;;3.15;;
60979;SDS011;46851;49.160;8.980;2023-10-13T14:46:39;8.65;;;2.75;;
60979;SDS011;46851;49.160;8.980;2023-10-13T14:49:06;7.20;;;2.45;;
60979;SDS011;46851;49.160;8.980;2023-10-13T14:51:32;8.93;;;2.92;;
60979;SDS011;46851;49.160;8.980;2023-10-13T14:53:58;5.50;;;2.53;;
60979;SDS011;46851;49.160;8.980;2023-10-13T14:56:25;8.50;;;3.05;;
60979;SDS011;46851;49.160;8.980;2023-10-13T14:58:52;7.78;;;2.58;;
60979;SDS011;46851;49.160;8.980;2023-10-13T15:01:19;5.63;;;2.33;;
60979;SDS011;46851;49.160;8.980;2023-10-13T15:03:46;5.82;;;2.30;;
60979;SDS011;46851;49.160;8.980;2023-10-13T15:06:22;5.28;;;2.50;;
60979;SDS011;46851;49.160;8.980;2023-10-13T15:08:50;7.03;;;2.20;;
60979;SDS011;46851;49.160;8.980;2023-10-13T15:11:18;5.20;;;2.10;;
60979;SDS011;46851;49.160;8.980;2023-10-13T15:13:45;7.93;;;2.10;;
60979;SDS011;46851;49.160;8.980;2023-10-13T15:16:16;7.13;;;2.33;;
60979;SDS011;46851;49.160;8.980;2023-10-13T15:18:43;6.05;;;2.72;;
60979;SDS011;46851;49.160;8.980;2023-10-13T15:21:09;7.97;;;2.63;;
60979;SDS011;46851;49.160;8.980;2023-10-13T15:23:35;6.55;;;2.33;;
60979;SDS011;46851;49.160;8.980;2023-10-13T15:26:08;5.20;;;2.22;;
60979;SDS011;46851;49.160;8.980;2023-10-13T15:28:35;7.00;;;2.47;;
60979;SDS011;46851;49.160;8.980;2023-10-13T15:31:02;4.93;;;2.20;;
60979;SDS011;46851;49.160;8.980;2023-10-13T15:33:49;6.53;;;2.30;;
60979;SDS011;46851;49.160;8.980;2023-10-13T15:36:22;10.07;;;2.65;;
60979;SDS011;46851;49.160;8.980;2023-10-13T15:38:51;9.50;;;2.97;;
60979;SDS011;46851;49.160;8.980;2023-10-13T15:41:23;7.80;;;2.60;;
60979;SDS011;46851;49.160;8.980;2023-10-13T15:43:49;7.88;;;2.75;;
60979;SDS011;46851;49.160;8.980;2023-10-13T15:46:17;9.18;;;3.58;;
60979;SDS011;46851;49.160;8.980;2023-10-13T15:48:43;8.35;;;2.75;;
60979;SDS011;46851;49.160;8.980;2023-10-13T15:51:11;4.70;;;2.55;;
60979;SDS011;46851;49.160;8.980;2023-10-13T15:53:41;5.82;;;2.85;;